createdAt,value
2022-08-17T00:02:25.527Z,99.90
2022-08-17T00:04:54.717Z,99.90
2022-08-17T00:07:22.201Z,99.90
2022-08-17T00:09:48.908Z,99.90
2022-08-17T00:12:42.249Z,99.90
2022-08-17T00:15:04.800Z,99.90
2022-08-17T00:17:31.564Z,99.90
2022-08-17T00:19:58.301Z,99.90
2022-08-17T00:22:34.647Z,99.90
2022-08-17T00:25:07.159Z,99.90
2022-08-17T00:27:34.666Z,99.90
2022-08-17T00:30:01.502Z,99.90
2022-08-17T00:33:15.123Z,99.90
2022-08-17T00:35:17.704Z,99.90
2022-08-17T00:37:44.472Z,99.90
2022-08-17T00:40:14.238Z,99.90
2022-08-17T00:42:41.910Z,99.90
2022-08-17T00:45:11.119Z,99.90
2022-08-17T00:47:38.011Z,99.90
2022-08-17T00:50:09.410Z,99.90
2022-08-17T00:52:42.415Z,99.90
2022-08-17T00:55:09.660Z,99.90
2022-08-17T00:57:43.512Z,99.90
2022-08-17T01:00:26.659Z,99.90
2022-08-17T01:02:59.009Z,99.90
2022-08-17T01:05:29.481Z,99.90
2022-08-17T01:07:57.224Z,99.90
2022-08-17T01:10:58.444Z,99.90
2022-08-17T01:13:32.835Z,99.90
2022-08-17T01:16:06.452Z,99.90
2022-08-17T01:18:34.288Z,99.90
2022-08-17T01:21:09.074Z,99.90
2022-08-17T01:23:36.600Z,99.90
2022-08-17T01:26:06.056Z,99.90
2022-08-17T01:28:52.618Z,99.90
2022-08-17T01:31:21.667Z,99.90
2022-08-17T01:33:48.439Z,99.90
2022-08-17T01:36:15.388Z,99.90
2022-08-17T01:38:42.168Z,99.90
2022-08-17T01:41:13.702Z,99.90
2022-08-17T01:43:47.388Z,99.90
2022-08-17T01:46:23.703Z,99.90
2022-08-17T01:48:51.238Z,99.90
2022-08-17T01:51:19.094Z,99.90
2022-08-17T01:53:52.484Z,99.90
2022-08-17T01:56:23.250Z,99.90
2022-08-17T01:58:50.104Z,99.90
2022-08-17T02:01:26.482Z,99.90
2022-08-17T02:04:00.426Z,99.90
2022-08-17T02:06:44.986Z,99.90
2022-08-17T02:09:16.903Z,99.90
2022-08-17T02:11:44.909Z,99.90
2022-08-17T02:14:13.332Z,99.90
2022-08-17T02:16:41.154Z,99.90
2022-08-17T02:19:12.371Z,99.90
2022-08-17T02:21:40.620Z,99.90
2022-08-17T02:24:11.351Z,99.90
2022-08-17T02:26:38.243Z,99.90
2022-08-17T02:29:05.412Z,99.90
2022-08-17T02:31:32.217Z,99.90
2022-08-17T02:34:04.130Z,99.90
2022-08-17T02:36:32.963Z,99.90
2022-08-17T02:39:01.916Z,99.90
2022-08-17T02:41:28.697Z,99.90
2022-08-17T02:43:55.387Z,99.90
2022-08-17T02:46:22.642Z,99.90
2022-08-17T02:48:49.498Z,99.90
2022-08-17T02:51:16.823Z,99.90
2022-08-17T02:53:43.937Z,99.90
2022-08-17T02:56:10.700Z,99.90
2022-08-17T02:58:37.454Z,99.90
2022-08-17T03:01:06.927Z,99.90
2022-08-17T03:03:34.638Z,99.90
2022-08-17T03:06:01.977Z,99.90
2022-08-17T03:08:29.208Z,99.90
2022-08-17T03:10:56.123Z,99.90
2022-08-17T03:13:23.472Z,99.90
2022-08-17T03:15:50.649Z,99.90
2022-08-17T03:18:24.649Z,99.90
2022-08-17T03:20:54.481Z,99.90
2022-08-17T03:23:24.249Z,99.90
2022-08-17T03:25:53.081Z,99.90
2022-08-17T03:28:20.899Z,99.90
2022-08-17T03:30:47.618Z,99.90
2022-08-17T03:33:14.620Z,99.90
2022-08-17T03:35:41.974Z,99.90
2022-08-17T03:38:15.120Z,99.90
2022-08-17T03:40:56.328Z,99.90
2022-08-17T03:43:28.170Z,99.90
2022-08-17T03:46:27.168Z,99.90
2022-08-17T03:49:14.257Z,99.90
2022-08-17T03:51:59.865Z,99.90
2022-08-17T03:54:45.541Z,99.90
2022-08-17T03:57:12.889Z,99.90
2022-08-17T03:59:41.645Z,99.90
2022-08-17T04:02:16.382Z,99.90
2022-08-17T04:04:43.152Z,99.90
2022-08-17T04:07:10.058Z,99.90
2022-08-17T04:09:36.900Z,99.90
2022-08-17T04:12:04.735Z,99.90
2022-08-17T04:14:36.435Z,99.90
2022-08-17T04:17:20.020Z,99.90
2022-08-17T04:19:46.904Z,99.90
2022-08-17T04:22:30.042Z,99.90
2022-08-17T04:25:08.931Z,99.90
2022-08-17T04:27:36.328Z,99.90
2022-08-17T04:30:04.191Z,99.90
2022-08-17T04:33:04.504Z,99.90
2022-08-17T04:35:26.900Z,99.90
2022-08-17T04:37:54.351Z,99.90
2022-08-17T04:40:41.554Z,99.90
2022-08-17T04:43:18.809Z,99.90
2022-08-17T04:45:55.701Z,99.90
2022-08-17T04:48:36.532Z,99.90
2022-08-17T04:51:10.616Z,99.90
2022-08-17T04:53:38.838Z,99.90
2022-08-17T04:56:05.847Z,99.90
2022-08-17T04:58:32.747Z,99.90
2022-08-17T05:01:00.215Z,99.90
2022-08-17T05:03:27.580Z,99.90
2022-08-17T05:05:54.426Z,99.90
2022-08-17T05:08:21.694Z,99.90
2022-08-17T05:10:49.386Z,99.90
2022-08-17T05:13:19.111Z,99.90
2022-08-17T05:15:48.088Z,99.90
2022-08-17T05:18:16.066Z,99.90
2022-08-17T05:20:43.448Z,99.90
2022-08-17T05:23:13.138Z,99.90
2022-08-17T05:25:47.334Z,99.90
2022-08-17T05:28:15.377Z,99.90
2022-08-17T05:30:43.958Z,99.90
2022-08-17T05:33:16.720Z,99.90
2022-08-17T05:35:47.022Z,99.90
2022-08-17T05:38:19.224Z,99.90
2022-08-17T05:40:46.701Z,99.90
2022-08-17T05:43:31.750Z,99.90
2022-08-17T05:46:21.769Z,99.90
2022-08-17T05:49:01.759Z,99.90
2022-08-17T05:51:52.531Z,99.90
2022-08-17T05:54:42.976Z,99.90
2022-08-17T05:57:39.890Z,99.90
2022-08-17T06:00:29.980Z,99.90
2022-08-17T06:03:34.353Z,99.90
2022-08-17T06:06:32.145Z,99.90
2022-08-17T06:09:22.838Z,99.90
2022-08-17T06:12:24.199Z,99.90
2022-08-17T06:15:00.194Z,99.90
2022-08-17T06:17:28.695Z,99.90
2022-08-17T06:20:04.318Z,99.90
2022-08-17T06:22:35.987Z,99.90
2022-08-17T06:25:17.289Z,99.90
2022-08-17T06:27:53.677Z,99.90
2022-08-17T06:30:22.449Z,99.90
2022-08-17T06:32:51.050Z,99.90
2022-08-17T06:35:41.060Z,99.90
2022-08-17T06:38:36.929Z,99.90
2022-08-17T06:41:12.315Z,99.90
2022-08-17T06:44:09.997Z,99.90
2022-08-17T06:46:38.697Z,99.90
2022-08-17T06:49:10.461Z,99.90
2022-08-17T06:52:43.360Z,99.90
2022-08-17T06:55:17.653Z,99.90
2022-08-17T06:57:51.185Z,99.90
2022-08-17T07:00:22.318Z,99.90
2022-08-17T07:02:57.419Z,99.90
2022-08-17T07:05:48.065Z,99.90
2022-08-17T07:08:35.065Z,99.90
2022-08-17T07:11:15.804Z,99.90
2022-08-17T07:14:16.950Z,99.90
2022-08-17T07:16:51.270Z,99.90
2022-08-17T07:19:22.585Z,99.90
2022-08-17T07:21:55.042Z,99.90
2022-08-17T07:24:48.977Z,99.90
2022-08-17T07:27:18.199Z,99.90
2022-08-17T07:30:11.708Z,99.90
2022-08-17T07:32:45.184Z,99.90
2022-08-17T07:35:17.202Z,99.90
2022-08-17T07:37:45.951Z,99.90
2022-08-17T07:40:27.615Z,99.90
2022-08-17T07:43:06.773Z,99.90
2022-08-17T07:45:53.869Z,99.90
2022-08-17T07:48:24.857Z,99.90
2022-08-17T07:50:54.913Z,99.90
2022-08-17T07:53:24.561Z,99.90
2022-08-17T07:55:53.553Z,99.90
2022-08-17T07:58:23.726Z,99.90
2022-08-17T08:01:15.321Z,99.90
2022-08-17T08:03:46.205Z,99.90
2022-08-17T08:06:22.621Z,99.90
2022-08-17T08:08:55.196Z,99.90
2022-08-17T08:11:35.106Z,99.90
2022-08-17T08:14:29.443Z,99.90
2022-08-17T08:17:03.030Z,99.90
2022-08-17T08:19:31.219Z,99.90
2022-08-17T08:22:04.182Z,99.90
2022-08-17T08:24:52.300Z,99.90
2022-08-17T08:27:27.204Z,99.90
2022-08-17T08:30:05.177Z,99.90
2022-08-17T08:32:59.101Z,99.90
2022-08-17T08:35:31.465Z,99.90
2022-08-17T08:38:25.465Z,99.90
2022-08-17T08:41:29.673Z,99.90
2022-08-17T08:44:15.741Z,99.90
2022-08-17T08:47:07.214Z,99.90
2022-08-17T08:50:05.804Z,99.90
2022-08-17T08:52:34.039Z,99.90
2022-08-17T08:55:20.936Z,99.90
2022-08-17T08:57:56.852Z,99.90
2022-08-17T09:00:26.236Z,99.90
2022-08-17T09:03:15.878Z,99.90
2022-08-17T09:05:55.872Z,99.90
2022-08-17T09:08:37.588Z,99.90
2022-08-17T09:11:13.589Z,99.90
2022-08-17T09:13:55.577Z,99.90
2022-08-17T09:16:45.494Z,99.90
2022-08-17T09:19:40.814Z,99.90
2022-08-17T09:22:23.172Z,99.90
2022-08-17T09:25:00.974Z,99.90
2022-08-17T09:27:38.659Z,99.90
2022-08-17T09:30:10.232Z,99.90
2022-08-17T09:32:44.815Z,99.90
2022-08-17T09:35:37.223Z,99.90
2022-08-17T09:38:19.751Z,99.90
2022-08-17T09:41:01.528Z,99.90
2022-08-17T09:43:40.971Z,99.90
2022-08-17T09:46:22.104Z,99.90
2022-08-17T09:49:03.254Z,99.90
2022-08-17T09:51:40.133Z,99.90
2022-08-17T09:54:44.682Z,99.90
2022-08-17T09:57:29.911Z,99.90
2022-08-17T10:00:09.261Z,99.90
2022-08-17T10:02:57.883Z,99.90
2022-08-17T10:05:46.679Z,99.90
2022-08-17T10:08:29.981Z,99.90
2022-08-17T10:10:58.918Z,99.90
2022-08-17T10:13:37.348Z,99.90
2022-08-17T10:16:14.675Z,99.90
2022-08-17T10:19:22.334Z,99.90
2022-08-17T10:22:32.402Z,99.90
2022-08-17T10:25:22.733Z,99.90
2022-08-17T10:27:55.263Z,99.90
2022-08-17T10:30:26.673Z,99.90
2022-08-17T10:32:59.167Z,99.90
2022-08-17T10:35:33.975Z,99.90
2022-08-17T10:38:24.669Z,99.90
2022-08-17T10:41:13.397Z,99.90
2022-08-17T10:43:55.846Z,99.90
2022-08-17T10:47:06.953Z,99.90
2022-08-17T10:49:42.769Z,99.90
2022-08-17T10:52:26.166Z,99.90
2022-08-17T10:54:58.233Z,99.90
2022-08-17T10:57:37.009Z,99.90
2022-08-17T11:00:15.525Z,99.90
2022-08-17T11:02:52.477Z,99.90
2022-08-17T11:05:42.986Z,99.90
2022-08-17T11:09:07.831Z,99.90
2022-08-17T11:11:51.484Z,99.90
2022-08-17T11:14:30.489Z,99.90
2022-08-17T11:17:31.196Z,99.90
2022-08-17T11:20:38.711Z,99.90
2022-08-17T11:23:27.990Z,99.90
2022-08-17T11:25:57.566Z,99.90
2022-08-17T11:28:28.071Z,99.90
2022-08-17T11:31:03.380Z,99.90
2022-08-17T11:33:30.432Z,99.90
2022-08-17T11:36:22.775Z,99.90
2022-08-17T11:38:58.051Z,99.90
2022-08-17T11:41:30.337Z,99.90
2022-08-17T11:44:29.204Z,99.90
2022-08-17T11:48:09.065Z,99.90
2022-08-17T11:51:08.376Z,99.90
2022-08-17T11:53:38.137Z,99.90
2022-08-17T11:56:11.363Z,99.90
2022-08-17T11:58:43.752Z,99.90
2022-08-17T12:01:13.655Z,99.90
2022-08-17T12:03:55.412Z,99.90
2022-08-17T12:06:46.644Z,99.90
2022-08-17T12:09:30.882Z,99.90
2022-08-17T12:12:14.313Z,99.90
2022-08-17T12:15:09.531Z,99.90
2022-08-17T12:17:40.118Z,99.90
2022-08-17T12:20:29.981Z,99.90
2022-08-17T12:23:28.078Z,99.90
2022-08-17T12:26:07.772Z,99.90
2022-08-17T12:28:38.619Z,99.90
2022-08-17T12:31:34.598Z,99.90
2022-08-17T12:34:03.320Z,99.90
2022-08-17T12:36:32.294Z,99.90
2022-08-17T12:39:13.820Z,99.90
2022-08-17T12:41:57.435Z,99.90
2022-08-17T12:44:49.770Z,99.90
2022-08-17T12:47:22.847Z,99.90
2022-08-17T12:49:53.071Z,99.90
2022-08-17T12:52:19.757Z,99.90
2022-08-17T12:54:57.038Z,99.90
2022-08-17T12:57:34.429Z,99.20
2022-08-17T13:00:29.340Z,98.70
2022-08-17T13:03:12.939Z,97.00
2022-08-17T13:06:00.706Z,96.90
2022-08-17T13:08:38.212Z,96.60
2022-08-17T13:11:18.726Z,96.90
2022-08-17T13:13:55.089Z,97.20
2022-08-17T13:16:25.246Z,96.40
2022-08-17T13:19:18.798Z,96.20
2022-08-17T13:22:04.255Z,95.80
2022-08-17T13:24:38.326Z,95.60
2022-08-17T13:27:07.817Z,94.90
2022-08-17T13:29:35.045Z,95.20
2022-08-17T13:32:10.707Z,95.20
2022-08-17T13:35:12.290Z,95.50
2022-08-17T13:37:37.566Z,95.30
2022-08-17T13:40:10.709Z,95.30
2022-08-17T13:42:52.381Z,94.60
2022-08-17T13:45:36.503Z,94.30
2022-08-17T13:48:27.061Z,93.90
2022-08-17T13:50:56.866Z,93.90
2022-08-17T13:53:28.262Z,93.70
2022-08-17T13:56:37.453Z,93.30
2022-08-17T13:59:00.148Z,93.60
2022-08-17T14:01:36.893Z,92.10
2022-08-17T14:04:16.846Z,91.20
2022-08-17T14:06:53.699Z,90.20
2022-08-17T14:09:24.294Z,89.50
2022-08-17T14:11:51.613Z,90.20
2022-08-17T14:14:18.593Z,90.30
2022-08-17T14:16:45.473Z,90.00
2022-08-17T14:19:13.899Z,90.20
2022-08-17T14:21:42.894Z,89.40
2022-08-17T14:24:21.839Z,88.70
2022-08-17T14:26:49.469Z,89.20
2022-08-17T14:29:16.248Z,89.20
2022-08-17T14:31:43.014Z,90.10
2022-08-17T14:34:20.911Z,90.00
2022-08-17T14:36:48.398Z,89.80
2022-08-17T14:39:17.304Z,90.00
2022-08-17T14:41:44.505Z,90.10
2022-08-17T14:44:13.006Z,89.30
2022-08-17T14:46:41.280Z,90.00
2022-08-17T14:49:10.775Z,90.20
2022-08-17T14:51:44.211Z,89.60
2022-08-17T14:54:33.652Z,89.30
2022-08-17T14:57:17.706Z,90.20
2022-08-17T14:59:48.837Z,89.80
2022-08-17T15:02:29.711Z,89.60
2022-08-17T15:05:05.184Z,88.80
2022-08-17T15:07:32.115Z,88.40
2022-08-17T15:10:02.770Z,88.30
2022-08-17T15:12:34.703Z,88.10
2022-08-17T15:15:05.612Z,88.00
2022-08-17T15:17:45.097Z,87.50
2022-08-17T15:20:16.657Z,87.30
2022-08-17T15:22:45.193Z,87.60
2022-08-17T15:27:40.329Z,86.60
2022-08-17T15:30:09.899Z,86.60
2022-08-17T15:32:40.561Z,86.60
2022-08-17T15:35:11.725Z,87.00
2022-08-17T15:37:40.230Z,86.90
2022-08-17T15:40:08.773Z,85.20
2022-08-17T15:42:35.992Z,85.10
2022-08-17T15:45:11.014Z,84.50
2022-08-17T15:47:38.333Z,84.50
2022-08-17T15:50:07.646Z,83.20
2022-08-17T15:52:40.233Z,83.40
2022-08-17T15:55:23.517Z,83.60
2022-08-17T15:57:52.083Z,82.90
2022-08-17T16:00:19.785Z,82.60
2022-08-17T16:03:45.757Z,83.40
2022-08-17T16:05:35.271Z,83.80
2022-08-17T16:08:02.330Z,82.60
2022-08-17T16:10:35.075Z,82.70
2022-08-17T16:13:04.165Z,82.90
2022-08-17T16:15:31.603Z,83.20
2022-08-17T16:17:58.691Z,83.40
2022-08-17T16:20:25.474Z,81.70
2022-08-17T16:22:52.642Z,81.90
2022-08-17T16:25:52.551Z,81.60
2022-08-17T16:28:12.367Z,81.60
2022-08-17T16:30:39.409Z,82.00
2022-08-17T16:33:06.349Z,82.90
2022-08-17T16:35:35.515Z,83.70
2022-08-17T16:38:02.924Z,84.80
2022-08-17T16:40:35.864Z,85.10
2022-08-17T16:43:04.274Z,85.20
2022-08-17T16:45:40.347Z,85.20
2022-08-17T16:48:08.932Z,85.20
2022-08-17T16:50:36.649Z,85.50
2022-08-17T16:53:17.370Z,86.10
2022-08-17T16:55:45.759Z,87.10
2022-08-17T16:58:12.537Z,88.50
2022-08-17T17:00:39.640Z,89.00
2022-08-17T17:03:19.829Z,89.00
2022-08-17T17:06:03.655Z,88.20
2022-08-17T17:08:49.478Z,89.10
2022-08-17T17:11:26.653Z,88.40
2022-08-17T17:14:02.036Z,89.90
2022-08-17T17:16:29.150Z,90.50
2022-08-17T17:19:01.992Z,90.20
2022-08-17T17:22:04.856Z,90.10
2022-08-17T17:24:44.922Z,90.00
2022-08-17T17:27:35.523Z,90.70
2022-08-17T17:30:16.620Z,90.70
2022-08-17T17:32:55.784Z,90.60
2022-08-17T17:35:52.498Z,90.80
2022-08-17T17:38:37.487Z,91.20
2022-08-17T17:41:13.097Z,91.60
2022-08-17T17:43:41.368Z,91.70
2022-08-17T17:46:29.218Z,92.30
2022-08-17T17:48:59.888Z,92.70
2022-08-17T17:52:07.231Z,92.80
2022-08-17T17:54:50.932Z,92.70
2022-08-17T17:57:21.347Z,92.60
2022-08-17T18:00:17.197Z,92.90
2022-08-17T18:03:05.788Z,93.40
2022-08-17T18:05:50.504Z,93.30
2022-08-17T18:08:43.399Z,93.50
2022-08-17T18:11:25.014Z,93.90
2022-08-17T18:14:17.222Z,93.90
2022-08-17T18:16:46.373Z,93.80
2022-08-17T18:19:21.464Z,94.00
2022-08-17T18:22:05.072Z,94.20
2022-08-17T18:24:37.961Z,94.30
2022-08-17T18:27:25.137Z,94.10
2022-08-17T18:29:55.178Z,94.00
2022-08-17T18:32:26.605Z,94.10
2022-08-17T18:35:01.487Z,93.80
2022-08-17T18:37:35.854Z,94.00
2022-08-17T18:40:31.103Z,94.10
2022-08-17T18:43:00.679Z,94.20
2022-08-17T18:45:38.716Z,95.10
2022-08-17T18:48:17.241Z,95.00
2022-08-17T18:50:44.569Z,95.30
2022-08-17T18:53:26.663Z,95.20
2022-08-17T18:56:19.106Z,95.20
2022-08-17T18:59:06.168Z,95.20
2022-08-17T19:01:52.447Z,95.20
2022-08-17T19:04:41.906Z,95.50
2022-08-17T19:07:30.880Z,95.90
2022-08-17T19:10:25.414Z,95.60
2022-08-17T19:12:55.040Z,95.70
2022-08-17T19:15:33.282Z,96.20
2022-08-17T19:18:15.485Z,96.60
2022-08-17T19:20:50.601Z,97.00
2022-08-17T19:23:29.191Z,97.30
2022-08-17T19:25:58.921Z,97.30
2022-08-17T19:28:50.447Z,97.50
2022-08-17T19:31:22.431Z,97.50
2022-08-17T19:33:49.849Z,97.70
2022-08-17T19:36:26.227Z,97.70
2022-08-17T19:39:06.461Z,97.30
2022-08-17T19:41:56.050Z,97.70
2022-08-17T19:44:38.479Z,97.90
2022-08-17T19:47:36.188Z,98.00
2022-08-17T19:50:11.235Z,98.40
2022-08-17T19:52:56.107Z,98.50
2022-08-17T19:55:44.035Z,98.50
2022-08-17T19:58:37.588Z,98.40
2022-08-17T20:01:06.678Z,98.70
2022-08-17T20:03:45.669Z,99.10
2022-08-17T20:06:14.028Z,98.90
2022-08-17T20:08:53.378Z,98.80
2022-08-17T20:11:26.023Z,98.80
2022-08-17T20:14:10.746Z,98.80
2022-08-17T20:16:37.525Z,98.60
2022-08-17T20:19:43.001Z,98.50
2022-08-17T20:22:14.925Z,98.70
2022-08-17T20:25:00.085Z,98.90
2022-08-17T20:27:31.803Z,99.00
2022-08-17T20:29:58.784Z,99.10
2022-08-17T20:32:32.930Z,99.10
2022-08-17T20:35:15.001Z,99.10
2022-08-17T20:37:49.990Z,99.10
2022-08-17T20:40:25.961Z,99.00
2022-08-17T20:42:53.022Z,99.00
2022-08-17T20:45:25.036Z,99.00
2022-08-17T20:48:36.210Z,99.10
2022-08-17T20:51:18.766Z,99.20
2022-08-17T20:53:48.264Z,99.20
2022-08-17T20:56:48.983Z,99.20
2022-08-17T20:59:25.871Z,99.60
2022-08-17T21:02:18.074Z,99.80
2022-08-17T21:04:52.768Z,99.90
2022-08-17T21:07:42.849Z,99.90
2022-08-17T21:10:13.873Z,99.90
2022-08-17T21:13:00.613Z,99.90
2022-08-17T21:15:42.363Z,99.90
2022-08-17T21:18:35.494Z,99.90
2022-08-17T21:21:34.372Z,99.90
2022-08-17T21:24:11.837Z,99.90
2022-08-17T21:27:05.265Z,99.90
2022-08-17T21:29:34.070Z,99.90
2022-08-17T21:32:07.088Z,99.90
2022-08-17T21:34:39.268Z,99.90
2022-08-17T21:37:23.696Z,99.90
2022-08-17T21:39:59.037Z,99.90
2022-08-17T21:42:32.150Z,99.90
2022-08-17T21:45:25.411Z,99.90
2022-08-17T21:48:32.410Z,99.90
2022-08-17T21:51:10.901Z,99.90
2022-08-17T21:53:44.715Z,99.90
2022-08-17T21:56:19.711Z,99.90
2022-08-17T21:58:54.409Z,99.90
2022-08-17T22:01:28.188Z,99.90
2022-08-17T22:04:11.217Z,99.90
2022-08-17T22:06:39.642Z,99.90
2022-08-17T22:09:09.052Z,99.90
2022-08-17T22:11:58.855Z,99.90
2022-08-17T22:14:51.422Z,99.90
2022-08-17T22:17:35.358Z,99.90
2022-08-17T22:20:15.960Z,99.90
2022-08-17T22:23:04.054Z,99.90
2022-08-17T22:25:33.840Z,99.90
2022-08-17T22:28:04.501Z,99.90
2022-08-17T22:30:36.528Z,99.90
2022-08-17T22:33:40.717Z,99.90
2022-08-17T22:36:34.950Z,99.90
2022-08-17T22:39:26.667Z,99.90
2022-08-17T22:42:04.917Z,99.90
2022-08-17T22:44:47.115Z,99.90
2022-08-17T22:47:17.066Z,99.90
2022-08-17T22:49:57.842Z,99.90
2022-08-17T22:52:33.369Z,99.90
2022-08-17T22:55:30.324Z,99.90
2022-08-17T22:58:16.514Z,99.90
2022-08-17T23:00:46.559Z,99.90
2022-08-17T23:03:20.716Z,99.90
2022-08-17T23:06:04.591Z,99.90
2022-08-17T23:08:33.680Z,99.90
2022-08-17T23:11:00.603Z,99.90
2022-08-17T23:13:28.145Z,99.90
2022-08-17T23:15:54.931Z,99.90
2022-08-17T23:18:23.435Z,99.90
2022-08-17T23:20:50.315Z,99.90
2022-08-17T23:23:23.382Z,99.90
2022-08-17T23:25:50.484Z,99.90
2022-08-17T23:28:17.227Z,99.90
2022-08-17T23:30:44.813Z,99.90
2022-08-17T23:33:33.659Z,99.90
2022-08-17T23:36:01.277Z,99.90
2022-08-17T23:38:28.637Z,99.90
2022-08-17T23:40:56.017Z,99.90
2022-08-17T23:43:25.268Z,99.90
2022-08-17T23:45:56.109Z,99.90
2022-08-17T23:48:35.192Z,99.90
2022-08-17T23:51:05.822Z,99.90
2022-08-17T23:53:36.180Z,99.90
2022-08-17T23:56:09.243Z,99.90
2022-08-17T23:58:38.678Z,99.90
